sensor_id;sensor_type;location;lat;lon;timestamp;P1;durP1;ratioP1;P2;durP2;ratioP2
66264;SDS011;53055;44.648;21.148;2022-08-19T00:01:09;7.88;;;4.63;;
66264;SDS011;53055;44.648;21.148;2022-08-19T00:03:36;11.18;;;5.38;;
66264;SDS011;53055;44.648;21.148;2022-08-19T00:06:02;8.63;;;4.55;;
66264;SDS011;53055;44.648;21.148;2022-08-19T00:08:29;8.95;;;5.10;;
66264;SDS011;53055;44.648;21.148;2022-08-19T00:10:55;9.43;;;5.10;;
66264;SDS011;53055;44.648;21.148;2022-08-19T00:13:22;9.25;;;4.82;;
66264;SDS011;53055;44.648;21.148;2022-08-19T00:15:48;9.10;;;5.20;;
66264;SDS011;53055;44.648;21.148;2022-08-19T00:18:14;7.32;;;5.03;;
66264;SDS011;53055;44.648;21.148;2022-08-19T00:20:40;8.95;;;4.82;;
66264;SDS011;53055;44.648;21.148;2022-08-19T00:23:06;8.95;;;4.65;;
66264;SDS011;53055;44.648;21.148;2022-08-19T00:25:32;8.18;;;4.60;;
66264;SDS011;53055;44.648;21.148;2022-08-19T00:27:58;7.20;;;5.13;;
66264;SDS011;53055;44.648;21.148;2022-08-19T00:30:25;8.88;;;5.13;;
66264;SDS011;53055;44.648;21.148;2022-08-19T00:32:52;7.32;;;4.80;;
66264;SDS011;53055;44.648;21.148;2022-08-19T00:35:20;8.68;;;5.10;;
66264;SDS011;53055;44.648;21.148;2022-08-19T00:37:47;8.95;;;4.75;;
66264;SDS011;53055;44.648;21.148;2022-08-19T00:40:13;7.47;;;4.88;;
66264;SDS011;53055;44.648;21.148;2022-08-19T00:42:39;7.90;;;4.57;;
66264;SDS011;53055;44.648;21.148;2022-08-19T00:45:09;9.60;;;5.15;;
66264;SDS011;53055;44.648;21.148;2022-08-19T00:47:35;7.03;;;4.80;;
66264;SDS011;53055;44.648;21.148;2022-08-19T00:50:01;8.20;;;4.68;;
66264;SDS011;53055;44.648;21.148;2022-08-19T00:52:30;6.90;;;3.83;;
66264;SDS011;53055;44.648;21.148;2022-08-19T00:54:59;8.07;;;3.88;;
66264;SDS011;53055;44.648;21.148;2022-08-19T00:57:28;9.02;;;4.22;;
66264;SDS011;53055;44.648;21.148;2022-08-19T00:59:55;11.43;;;4.63;;
66264;SDS011;53055;44.648;21.148;2022-08-19T01:02:22;7.53;;;4.15;;
66264;SDS011;53055;44.648;21.148;2022-08-19T01:04:48;7.45;;;4.25;;
66264;SDS011;53055;44.648;21.148;2022-08-19T01:07:14;9.02;;;4.28;;
66264;SDS011;53055;44.648;21.148;2022-08-19T01:09:41;8.30;;;4.05;;
66264;SDS011;53055;44.648;21.148;2022-08-19T01:12:07;8.15;;;4.45;;
66264;SDS011;53055;44.648;21.148;2022-08-19T01:14:33;7.55;;;3.95;;
66264;SDS011;53055;44.648;21.148;2022-08-19T01:17:00;7.72;;;4.10;;
66264;SDS011;53055;44.648;21.148;2022-08-19T01:19:37;7.03;;;4.30;;
66264;SDS011;53055;44.648;21.148;2022-08-19T01:24:36;8.00;;;4.68;;
66264;SDS011;53055;44.648;21.148;2022-08-19T01:27:06;8.35;;;4.40;;
66264;SDS011;53055;44.648;21.148;2022-08-19T01:29:33;8.27;;;4.18;;
66264;SDS011;53055;44.648;21.148;2022-08-19T01:32:00;9.30;;;4.15;;
66264;SDS011;53055;44.648;21.148;2022-08-19T01:34:26;6.82;;;3.88;;
66264;SDS011;53055;44.648;21.148;2022-08-19T01:36:52;9.48;;;3.88;;
66264;SDS011;53055;44.648;21.148;2022-08-19T01:39:20;7.45;;;3.88;;
66264;SDS011;53055;44.648;21.148;2022-08-19T01:41:47;6.35;;;3.40;;
66264;SDS011;53055;44.648;21.148;2022-08-19T01:44:14;8.52;;;4.00;;
66264;SDS011;53055;44.648;21.148;2022-08-19T01:46:41;7.32;;;4.13;;
66264;SDS011;53055;44.648;21.148;2022-08-19T01:49:07;6.57;;;3.92;;
66264;SDS011;53055;44.648;21.148;2022-08-19T01:51:33;7.05;;;4.10;;
66264;SDS011;53055;44.648;21.148;2022-08-19T01:54:00;6.38;;;4.07;;
66264;SDS011;53055;44.648;21.148;2022-08-19T01:56:26;8.68;;;4.40;;
66264;SDS011;53055;44.648;21.148;2022-08-19T01:58:57;9.40;;;4.65;;
66264;SDS011;53055;44.648;21.148;2022-08-19T02:01:24;7.80;;;4.03;;
66264;SDS011;53055;44.648;21.148;2022-08-19T02:03:50;8.57;;;3.95;;
66264;SDS011;53055;44.648;21.148;2022-08-19T02:06:18;9.07;;;4.22;;
66264;SDS011;53055;44.648;21.148;2022-08-19T02:08:44;7.53;;;4.05;;
66264;SDS011;53055;44.648;21.148;2022-08-19T02:11:17;8.45;;;4.00;;
66264;SDS011;53055;44.648;21.148;2022-08-19T02:13:44;9.85;;;4.55;;
66264;SDS011;53055;44.648;21.148;2022-08-19T02:16:10;8.00;;;4.00;;
66264;SDS011;53055;44.648;21.148;2022-08-19T02:18:36;6.63;;;4.20;;
66264;SDS011;53055;44.648;21.148;2022-08-19T02:21:02;9.13;;;4.40;;
66264;SDS011;53055;44.648;21.148;2022-08-19T02:23:28;6.60;;;4.20;;
66264;SDS011;53055;44.648;21.148;2022-08-19T02:25:55;8.07;;;4.20;;
66264;SDS011;53055;44.648;21.148;2022-08-19T02:28:21;10.52;;;4.97;;
66264;SDS011;53055;44.648;21.148;2022-08-19T02:30:47;7.32;;;4.10;;
66264;SDS011;53055;44.648;21.148;2022-08-19T02:33:13;8.15;;;4.45;;
66264;SDS011;53055;44.648;21.148;2022-08-19T02:35:43;6.95;;;4.10;;
66264;SDS011;53055;44.648;21.148;2022-08-19T02:38:09;8.85;;;4.60;;
66264;SDS011;53055;44.648;21.148;2022-08-19T02:40:51;6.40;;;4.18;;
66264;SDS011;53055;44.648;21.148;2022-08-19T02:43:18;9.57;;;4.68;;
66264;SDS011;53055;44.648;21.148;2022-08-19T02:45:48;7.07;;;4.38;;
66264;SDS011;53055;44.648;21.148;2022-08-19T02:48:18;6.75;;;3.78;;
66264;SDS011;53055;44.648;21.148;2022-08-19T02:50:45;7.40;;;4.47;;
66264;SDS011;53055;44.648;21.148;2022-08-19T02:53:11;7.90;;;4.32;;
66264;SDS011;53055;44.648;21.148;2022-08-19T02:55:44;8.10;;;4.43;;
66264;SDS011;53055;44.648;21.148;2022-08-19T02:58:10;7.60;;;4.43;;
66264;SDS011;53055;44.648;21.148;2022-08-19T03:00:40;6.75;;;4.38;;
66264;SDS011;53055;44.648;21.148;2022-08-19T03:03:07;10.35;;;4.72;;
66264;SDS011;53055;44.648;21.148;2022-08-19T03:05:33;7.65;;;4.85;;
66264;SDS011;53055;44.648;21.148;2022-08-19T03:07:59;7.47;;;4.70;;
66264;SDS011;53055;44.648;21.148;2022-08-19T03:10:25;8.10;;;4.70;;
66264;SDS011;53055;44.648;21.148;2022-08-19T03:12:51;8.05;;;4.60;;
66264;SDS011;53055;44.648;21.148;2022-08-19T03:15:17;8.05;;;4.30;;
66264;SDS011;53055;44.648;21.148;2022-08-19T03:17:43;8.40;;;5.20;;
66264;SDS011;53055;44.648;21.148;2022-08-19T03:20:09;8.65;;;5.35;;
66264;SDS011;53055;44.648;21.148;2022-08-19T03:22:35;8.00;;;4.97;;
66264;SDS011;53055;44.648;21.148;2022-08-19T03:25:02;9.15;;;4.63;;
66264;SDS011;53055;44.648;21.148;2022-08-19T03:27:28;8.00;;;4.78;;
66264;SDS011;53055;44.648;21.148;2022-08-19T03:29:54;7.95;;;4.68;;
66264;SDS011;53055;44.648;21.148;2022-08-19T03:32:21;8.05;;;4.95;;
66264;SDS011;53055;44.648;21.148;2022-08-19T03:34:48;8.85;;;4.40;;
66264;SDS011;53055;44.648;21.148;2022-08-19T03:37:15;9.00;;;5.00;;
66264;SDS011;53055;44.648;21.148;2022-08-19T03:39:42;8.48;;;5.22;;
66264;SDS011;53055;44.648;21.148;2022-08-19T03:42:08;8.18;;;4.75;;
66264;SDS011;53055;44.648;21.148;2022-08-19T03:44:34;8.77;;;4.97;;
66264;SDS011;53055;44.648;21.148;2022-08-19T03:47:03;9.27;;;5.25;;
66264;SDS011;53055;44.648;21.148;2022-08-19T03:49:30;8.60;;;5.10;;
66264;SDS011;53055;44.648;21.148;2022-08-19T03:51:57;10.02;;;5.30;;
66264;SDS011;53055;44.648;21.148;2022-08-19T03:54:26;8.48;;;5.38;;
66264;SDS011;53055;44.648;21.148;2022-08-19T03:56:53;9.15;;;5.40;;
66264;SDS011;53055;44.648;21.148;2022-08-19T03:59:30;11.07;;;5.47;;
66264;SDS011;53055;44.648;21.148;2022-08-19T04:01:57;8.63;;;5.18;;
66264;SDS011;53055;44.648;21.148;2022-08-19T04:04:24;10.38;;;5.35;;
66264;SDS011;53055;44.648;21.148;2022-08-19T04:06:50;13.05;;;5.70;;
66264;SDS011;53055;44.648;21.148;2022-08-19T04:09:17;9.57;;;5.57;;
66264;SDS011;53055;44.648;21.148;2022-08-19T04:11:45;9.32;;;4.93;;
66264;SDS011;53055;44.648;21.148;2022-08-19T04:14:12;9.73;;;5.65;;
66264;SDS011;53055;44.648;21.148;2022-08-19T04:16:39;10.65;;;5.55;;
66264;SDS011;53055;44.648;21.148;2022-08-19T04:19:05;8.80;;;5.70;;
66264;SDS011;53055;44.648;21.148;2022-08-19T04:21:31;12.15;;;6.60;;
66264;SDS011;53055;44.648;21.148;2022-08-19T04:23:57;8.80;;;5.55;;
66264;SDS011;53055;44.648;21.148;2022-08-19T04:26:25;9.43;;;5.70;;
66264;SDS011;53055;44.648;21.148;2022-08-19T04:28:51;9.35;;;5.70;;
66264;SDS011;53055;44.648;21.148;2022-08-19T04:31:21;9.52;;;5.90;;
66264;SDS011;53055;44.648;21.148;2022-08-19T04:33:47;9.10;;;5.97;;
66264;SDS011;53055;44.648;21.148;2022-08-19T04:36:21;9.95;;;5.97;;
66264;SDS011;53055;44.648;21.148;2022-08-19T04:38:48;9.15;;;5.82;;
66264;SDS011;53055;44.648;21.148;2022-08-19T04:41:15;9.00;;;5.25;;
66264;SDS011;53055;44.648;21.148;2022-08-19T04:44:00;10.18;;;5.70;;
66264;SDS011;53055;44.648;21.148;2022-08-19T04:46:27;10.15;;;5.65;;
66264;SDS011;53055;44.648;21.148;2022-08-19T04:48:55;9.18;;;5.05;;
66264;SDS011;53055;44.648;21.148;2022-08-19T04:51:22;8.30;;;5.55;;
66264;SDS011;53055;44.648;21.148;2022-08-19T04:53:48;12.30;;;5.80;;
66264;SDS011;53055;44.648;21.148;2022-08-19T04:56:14;7.57;;;5.28;;
66264;SDS011;53055;44.648;21.148;2022-08-19T04:58:42;9.18;;;5.47;;
66264;SDS011;53055;44.648;21.148;2022-08-19T05:01:09;9.73;;;5.50;;
66264;SDS011;53055;44.648;21.148;2022-08-19T05:03:37;9.10;;;5.45;;
66264;SDS011;53055;44.648;21.148;2022-08-19T05:06:04;8.25;;;5.07;;
66264;SDS011;53055;44.648;21.148;2022-08-19T05:08:32;8.57;;;5.07;;
66264;SDS011;53055;44.648;21.148;2022-08-19T05:10:58;11.85;;;5.40;;
66264;SDS011;53055;44.648;21.148;2022-08-19T05:13:25;9.82;;;5.22;;
66264;SDS011;53055;44.648;21.148;2022-08-19T05:15:58;8.45;;;5.22;;
66264;SDS011;53055;44.648;21.148;2022-08-19T05:18:25;8.15;;;5.10;;
66264;SDS011;53055;44.648;21.148;2022-08-19T05:21:11;7.55;;;4.82;;
66264;SDS011;53055;44.648;21.148;2022-08-19T05:23:56;8.90;;;5.20;;
66264;SDS011;53055;44.648;21.148;2022-08-19T05:26:22;10.27;;;4.75;;
66264;SDS011;53055;44.648;21.148;2022-08-19T05:28:50;9.73;;;4.55;;
66264;SDS011;53055;44.648;21.148;2022-08-19T05:31:16;13.20;;;5.18;;
66264;SDS011;53055;44.648;21.148;2022-08-19T05:33:42;9.52;;;5.28;;
66264;SDS011;53055;44.648;21.148;2022-08-19T05:36:09;8.02;;;5.03;;
66264;SDS011;53055;44.648;21.148;2022-08-19T05:38:35;10.82;;;5.32;;
66264;SDS011;53055;44.648;21.148;2022-08-19T05:41:10;9.45;;;5.18;;
66264;SDS011;53055;44.648;21.148;2022-08-19T05:43:37;10.25;;;5.57;;
66264;SDS011;53055;44.648;21.148;2022-08-19T05:46:03;8.65;;;5.22;;
66264;SDS011;53055;44.648;21.148;2022-08-19T05:48:31;6.65;;;5.03;;
66264;SDS011;53055;44.648;21.148;2022-08-19T05:50:57;8.43;;;4.97;;
66264;SDS011;53055;44.648;21.148;2022-08-19T05:53:24;9.18;;;5.28;;
66264;SDS011;53055;44.648;21.148;2022-08-19T05:55:50;9.52;;;5.10;;
66264;SDS011;53055;44.648;21.148;2022-08-19T05:58:16;10.98;;;5.32;;
66264;SDS011;53055;44.648;21.148;2022-08-19T06:00:43;8.52;;;5.10;;
66264;SDS011;53055;44.648;21.148;2022-08-19T06:03:10;11.93;;;5.28;;
66264;SDS011;53055;44.648;21.148;2022-08-19T06:05:36;12.88;;;5.40;;
66264;SDS011;53055;44.648;21.148;2022-08-19T06:08:02;10.02;;;5.30;;
66264;SDS011;53055;44.648;21.148;2022-08-19T06:10:29;9.27;;;5.50;;
66264;SDS011;53055;44.648;21.148;2022-08-19T06:12:55;9.05;;;5.32;;
66264;SDS011;53055;44.648;21.148;2022-08-19T06:15:21;13.57;;;4.95;;
66264;SDS011;53055;44.648;21.148;2022-08-19T06:17:50;9.93;;;5.20;;
66264;SDS011;53055;44.648;21.148;2022-08-19T06:20:16;10.70;;;5.50;;
66264;SDS011;53055;44.648;21.148;2022-08-19T06:22:44;10.55;;;5.70;;
66264;SDS011;53055;44.648;21.148;2022-08-19T06:25:11;10.10;;;5.28;;
66264;SDS011;53055;44.648;21.148;2022-08-19T06:27:37;9.75;;;5.07;;
66264;SDS011;53055;44.648;21.148;2022-08-19T06:30:04;7.72;;;4.43;;
66264;SDS011;53055;44.648;21.148;2022-08-19T06:32:31;7.72;;;4.85;;
66264;SDS011;53055;44.648;21.148;2022-08-19T06:34:57;7.45;;;4.35;;
66264;SDS011;53055;44.648;21.148;2022-08-19T06:37:23;8.40;;;4.47;;
66264;SDS011;53055;44.648;21.148;2022-08-19T06:39:49;8.23;;;4.53;;
66264;SDS011;53055;44.648;21.148;2022-08-19T06:42:15;9.63;;;4.90;;
66264;SDS011;53055;44.648;21.148;2022-08-19T06:44:44;9.27;;;4.57;;
66264;SDS011;53055;44.648;21.148;2022-08-19T06:47:12;9.50;;;4.30;;
66264;SDS011;53055;44.648;21.148;2022-08-19T06:49:38;8.75;;;5.15;;
66264;SDS011;53055;44.648;21.148;2022-08-19T06:52:05;10.00;;;4.90;;
66264;SDS011;53055;44.648;21.148;2022-08-19T06:54:31;7.68;;;5.00;;
66264;SDS011;53055;44.648;21.148;2022-08-19T06:56:58;9.45;;;5.45;;
66264;SDS011;53055;44.648;21.148;2022-08-19T06:59:28;9.25;;;5.20;;
66264;SDS011;53055;44.648;21.148;2022-08-19T07:01:57;9.23;;;5.47;;
66264;SDS011;53055;44.648;21.148;2022-08-19T07:04:25;10.38;;;4.88;;
66264;SDS011;53055;44.648;21.148;2022-08-19T07:06:59;7.53;;;4.95;;
66264;SDS011;53055;44.648;21.148;2022-08-19T07:09:25;11.65;;;5.60;;
66264;SDS011;53055;44.648;21.148;2022-08-19T07:11:52;7.15;;;4.63;;
66264;SDS011;53055;44.648;21.148;2022-08-19T07:14:19;10.00;;;5.05;;
66264;SDS011;53055;44.648;21.148;2022-08-19T07:16:46;9.50;;;5.03;;
66264;SDS011;53055;44.648;21.148;2022-08-19T07:19:13;7.88;;;5.00;;
66264;SDS011;53055;44.648;21.148;2022-08-19T07:21:39;7.50;;;4.65;;
66264;SDS011;53055;44.648;21.148;2022-08-19T07:24:06;10.00;;;4.90;;
66264;SDS011;53055;44.648;21.148;2022-08-19T07:26:33;10.48;;;4.88;;
66264;SDS011;53055;44.648;21.148;2022-08-19T07:29:04;9.63;;;4.88;;
66264;SDS011;53055;44.648;21.148;2022-08-19T07:31:30;8.57;;;4.80;;
66264;SDS011;53055;44.648;21.148;2022-08-19T07:34:01;9.65;;;5.03;;
66264;SDS011;53055;44.648;21.148;2022-08-19T07:36:28;8.07;;;4.93;;
66264;SDS011;53055;44.648;21.148;2022-08-19T07:38:56;8.65;;;4.60;;
66264;SDS011;53055;44.648;21.148;2022-08-19T07:41:23;9.70;;;4.55;;
66264;SDS011;53055;44.648;21.148;2022-08-19T07:43:49;10.07;;;4.40;;
66264;SDS011;53055;44.648;21.148;2022-08-19T07:46:16;9.88;;;5.88;;
66264;SDS011;53055;44.648;21.148;2022-08-19T07:48:43;9.30;;;5.60;;
66264;SDS011;53055;44.648;21.148;2022-08-19T07:51:14;8.90;;;5.78;;
66264;SDS011;53055;44.648;21.148;2022-08-19T07:53:41;8.98;;;6.40;;
66264;SDS011;53055;44.648;21.148;2022-08-19T07:56:09;9.90;;;5.38;;
66264;SDS011;53055;44.648;21.148;2022-08-19T07:58:37;7.00;;;5.18;;
66264;SDS011;53055;44.648;21.148;2022-08-19T08:01:04;7.40;;;5.10;;
66264;SDS011;53055;44.648;21.148;2022-08-19T08:03:30;10.05;;;5.28;;
66264;SDS011;53055;44.648;21.148;2022-08-19T08:06:15;7.63;;;4.38;;
66264;SDS011;53055;44.648;21.148;2022-08-19T08:09:01;9.93;;;5.22;;
66264;SDS011;53055;44.648;21.148;2022-08-19T08:11:44;8.90;;;4.85;;
66264;SDS011;53055;44.648;21.148;2022-08-19T08:14:18;10.43;;;5.10;;
66264;SDS011;53055;44.648;21.148;2022-08-19T08:16:44;7.65;;;4.63;;
66264;SDS011;53055;44.648;21.148;2022-08-19T08:19:10;9.05;;;4.95;;
66264;SDS011;53055;44.648;21.148;2022-08-19T08:21:36;9.38;;;5.50;;
66264;SDS011;53055;44.648;21.148;2022-08-19T08:24:02;7.55;;;5.00;;
66264;SDS011;53055;44.648;21.148;2022-08-19T08:26:29;10.48;;;4.28;;
66264;SDS011;53055;44.648;21.148;2022-08-19T08:28:55;6.97;;;4.57;;
66264;SDS011;53055;44.648;21.148;2022-08-19T08:31:21;10.60;;;4.75;;
66264;SDS011;53055;44.648;21.148;2022-08-19T08:33:48;8.88;;;4.60;;
66264;SDS011;53055;44.648;21.148;2022-08-19T08:36:14;8.93;;;4.43;;
66264;SDS011;53055;44.648;21.148;2022-08-19T08:38:41;9.27;;;4.57;;
66264;SDS011;53055;44.648;21.148;2022-08-19T08:41:44;7.45;;;4.38;;
66264;SDS011;53055;44.648;21.148;2022-08-19T08:44:00;7.75;;;4.40;;
66264;SDS011;53055;44.648;21.148;2022-08-19T08:52:10;6.63;;;4.25;;
66264;SDS011;53055;44.648;21.148;2022-08-19T08:54:39;6.95;;;4.40;;
66264;SDS011;53055;44.648;21.148;2022-08-19T08:57:17;8.52;;;4.30;;
66264;SDS011;53055;44.648;21.148;2022-08-19T08:59:46;9.93;;;4.18;;
66264;SDS011;53055;44.648;21.148;2022-08-19T09:02:15;8.00;;;4.30;;
66264;SDS011;53055;44.648;21.148;2022-08-19T09:04:41;8.70;;;4.22;;
66264;SDS011;53055;44.648;21.148;2022-08-19T09:09:40;8.20;;;4.10;;
66264;SDS011;53055;44.648;21.148;2022-08-19T09:12:31;8.80;;;4.18;;
66264;SDS011;53055;44.648;21.148;2022-08-19T09:17:29;7.25;;;4.22;;
66264;SDS011;53055;44.648;21.148;2022-08-19T09:19:57;8.00;;;4.05;;
66264;SDS011;53055;44.648;21.148;2022-08-19T09:22:25;7.82;;;4.25;;
66264;SDS011;53055;44.648;21.148;2022-08-19T09:24:52;8.00;;;4.40;;
66264;SDS011;53055;44.648;21.148;2022-08-19T09:27:19;7.75;;;3.92;;
66264;SDS011;53055;44.648;21.148;2022-08-19T09:29:45;8.23;;;3.78;;
66264;SDS011;53055;44.648;21.148;2022-08-19T09:32:14;8.30;;;3.92;;
66264;SDS011;53055;44.648;21.148;2022-08-19T09:34:40;6.30;;;3.90;;
66264;SDS011;53055;44.648;21.148;2022-08-19T09:37:06;7.47;;;3.80;;
66264;SDS011;53055;44.648;21.148;2022-08-19T09:39:33;8.25;;;4.05;;
66264;SDS011;53055;44.648;21.148;2022-08-19T09:41:59;7.40;;;3.58;;
66264;SDS011;53055;44.648;21.148;2022-08-19T09:44:25;7.50;;;3.65;;
66264;SDS011;53055;44.648;21.148;2022-08-19T09:46:51;5.72;;;3.33;;
66264;SDS011;53055;44.648;21.148;2022-08-19T09:49:18;8.88;;;4.30;;
66264;SDS011;53055;44.648;21.148;2022-08-19T09:51:48;7.13;;;4.20;;
66264;SDS011;53055;44.648;21.148;2022-08-19T09:54:15;7.53;;;3.72;;
66264;SDS011;53055;44.648;21.148;2022-08-19T09:56:41;7.35;;;3.92;;
66264;SDS011;53055;44.648;21.148;2022-08-19T09:59:07;7.72;;;4.10;;
66264;SDS011;53055;44.648;21.148;2022-08-19T10:01:35;5.78;;;3.08;;
66264;SDS011;53055;44.648;21.148;2022-08-19T10:04:01;7.93;;;3.40;;
66264;SDS011;53055;44.648;21.148;2022-08-19T10:06:33;9.30;;;3.80;;
66264;SDS011;53055;44.648;21.148;2022-08-19T10:08:59;7.57;;;3.60;;
66264;SDS011;53055;44.648;21.148;2022-08-19T10:11:25;7.07;;;3.60;;
66264;SDS011;53055;44.648;21.148;2022-08-19T10:13:51;7.88;;;3.55;;
66264;SDS011;53055;44.648;21.148;2022-08-19T10:16:18;7.35;;;3.10;;
66264;SDS011;53055;44.648;21.148;2022-08-19T10:18:48;7.70;;;3.75;;
66264;SDS011;53055;44.648;21.148;2022-08-19T10:23:40;7.10;;;3.50;;
66264;SDS011;53055;44.648;21.148;2022-08-19T10:26:11;7.88;;;3.38;;
66264;SDS011;53055;44.648;21.148;2022-08-19T10:28:37;8.80;;;3.80;;
66264;SDS011;53055;44.648;21.148;2022-08-19T10:31:05;6.13;;;3.50;;
66264;SDS011;53055;44.648;21.148;2022-08-19T10:33:31;9.40;;;3.47;;
66264;SDS011;53055;44.648;21.148;2022-08-19T10:36:01;8.02;;;3.53;;
66264;SDS011;53055;44.648;21.148;2022-08-19T10:38:27;6.15;;;3.30;;
66264;SDS011;53055;44.648;21.148;2022-08-19T10:40:54;6.30;;;3.55;;
66264;SDS011;53055;44.648;21.148;2022-08-19T10:43:20;6.68;;;2.90;;
66264;SDS011;53055;44.648;21.148;2022-08-19T10:45:53;5.97;;;3.15;;
66264;SDS011;53055;44.648;21.148;2022-08-19T10:48:23;6.72;;;3.00;;
66264;SDS011;53055;44.648;21.148;2022-08-19T10:50:49;7.35;;;3.50;;
66264;SDS011;53055;44.648;21.148;2022-08-19T10:53:34;8.35;;;3.28;;
66264;SDS011;53055;44.648;21.148;2022-08-19T10:56:00;9.13;;;3.55;;
66264;SDS011;53055;44.648;21.148;2022-08-19T10:58:44;8.57;;;3.35;;
66264;SDS011;53055;44.648;21.148;2022-08-19T11:01:10;7.22;;;2.92;;
66264;SDS011;53055;44.648;21.148;2022-08-19T11:03:36;6.85;;;2.80;;
66264;SDS011;53055;44.648;21.148;2022-08-19T11:06:05;9.05;;;3.33;;
66264;SDS011;53055;44.648;21.148;2022-08-19T11:08:32;10.10;;;3.75;;
66264;SDS011;53055;44.648;21.148;2022-08-19T11:10:59;8.15;;;3.35;;
66264;SDS011;53055;44.648;21.148;2022-08-19T11:13:30;6.20;;;2.80;;
66264;SDS011;53055;44.648;21.148;2022-08-19T11:16:09;7.03;;;3.83;;
66264;SDS011;53055;44.648;21.148;2022-08-19T11:18:36;6.75;;;2.88;;
66264;SDS011;53055;44.648;21.148;2022-08-19T11:21:13;9.77;;;3.70;;
66264;SDS011;53055;44.648;21.148;2022-08-19T11:23:39;7.55;;;3.25;;
66264;SDS011;53055;44.648;21.148;2022-08-19T11:26:06;7.70;;;3.33;;
66264;SDS011;53055;44.648;21.148;2022-08-19T11:28:32;10.23;;;3.33;;
66264;SDS011;53055;44.648;21.148;2022-08-19T11:30:58;8.48;;;2.90;;
66264;SDS011;53055;44.648;21.148;2022-08-19T11:33:24;8.20;;;2.70;;
66264;SDS011;53055;44.648;21.148;2022-08-19T11:35:51;8.07;;;3.03;;
66264;SDS011;53055;44.648;21.148;2022-08-19T11:38:18;9.82;;;3.92;;
66264;SDS011;53055;44.648;21.148;2022-08-19T11:40:44;5.95;;;2.47;;
66264;SDS011;53055;44.648;21.148;2022-08-19T11:43:10;7.38;;;2.90;;
66264;SDS011;53055;44.648;21.148;2022-08-19T11:45:36;8.60;;;3.35;;
66264;SDS011;53055;44.648;21.148;2022-08-19T11:48:03;8.48;;;2.85;;
66264;SDS011;53055;44.648;21.148;2022-08-19T11:50:29;8.10;;;2.85;;
66264;SDS011;53055;44.648;21.148;2022-08-19T11:52:56;8.98;;;3.08;;
66264;SDS011;53055;44.648;21.148;2022-08-19T11:55:22;8.18;;;2.90;;
66264;SDS011;53055;44.648;21.148;2022-08-19T11:57:48;7.03;;;3.30;;
66264;SDS011;53055;44.648;21.148;2022-08-19T12:00:14;7.63;;;3.10;;
66264;SDS011;53055;44.648;21.148;2022-08-19T12:02:44;8.80;;;2.90;;
66264;SDS011;53055;44.648;21.148;2022-08-19T12:05:10;6.10;;;2.97;;
66264;SDS011;53055;44.648;21.148;2022-08-19T12:07:36;8.32;;;2.65;;
66264;SDS011;53055;44.648;21.148;2022-08-19T12:10:02;9.20;;;2.70;;
66264;SDS011;53055;44.648;21.148;2022-08-19T12:12:28;7.85;;;3.22;;
66264;SDS011;53055;44.648;21.148;2022-08-19T12:14:54;6.97;;;2.88;;
66264;SDS011;53055;44.648;21.148;2022-08-19T12:17:23;5.47;;;2.53;;
66264;SDS011;53055;44.648;21.148;2022-08-19T12:19:50;7.47;;;2.70;;
66264;SDS011;53055;44.648;21.148;2022-08-19T12:22:16;10.45;;;3.05;;
66264;SDS011;53055;44.648;21.148;2022-08-19T12:24:43;8.00;;;2.90;;
66264;SDS011;53055;44.648;21.148;2022-08-19T12:27:09;5.95;;;3.20;;
66264;SDS011;53055;44.648;21.148;2022-08-19T12:29:35;5.88;;;2.90;;
66264;SDS011;53055;44.648;21.148;2022-08-19T12:32:04;7.43;;;2.92;;
66264;SDS011;53055;44.648;21.148;2022-08-19T12:34:30;7.65;;;2.83;;
66264;SDS011;53055;44.648;21.148;2022-08-19T12:36:58;10.63;;;3.30;;
66264;SDS011;53055;44.648;21.148;2022-08-19T12:39:25;7.65;;;3.10;;
66264;SDS011;53055;44.648;21.148;2022-08-19T12:41:51;7.68;;;2.80;;
66264;SDS011;53055;44.648;21.148;2022-08-19T12:44:17;7.45;;;2.90;;
66264;SDS011;53055;44.648;21.148;2022-08-19T12:46:43;10.00;;;3.08;;
66264;SDS011;53055;44.648;21.148;2022-08-19T12:49:09;7.43;;;2.75;;
66264;SDS011;53055;44.648;21.148;2022-08-19T12:51:35;8.80;;;3.08;;
66264;SDS011;53055;44.648;21.148;2022-08-19T12:54:02;11.20;;;3.50;;
66264;SDS011;53055;44.648;21.148;2022-08-19T12:56:29;9.00;;;3.20;;
66264;SDS011;53055;44.648;21.148;2022-08-19T12:58:56;7.68;;;3.00;;
66264;SDS011;53055;44.648;21.148;2022-08-19T13:01:22;9.77;;;3.10;;
66264;SDS011;53055;44.648;21.148;2022-08-19T13:03:48;10.00;;;3.40;;
66264;SDS011;53055;44.648;21.148;2022-08-19T13:06:15;6.57;;;2.92;;
66264;SDS011;53055;44.648;21.148;2022-08-19T13:08:42;9.23;;;3.03;;
66264;SDS011;53055;44.648;21.148;2022-08-19T13:11:10;8.88;;;3.03;;
66264;SDS011;53055;44.648;21.148;2022-08-19T13:13:37;10.45;;;3.58;;
66264;SDS011;53055;44.648;21.148;2022-08-19T13:16:05;7.30;;;3.05;;
66264;SDS011;53055;44.648;21.148;2022-08-19T13:18:31;7.65;;;2.95;;
66264;SDS011;53055;44.648;21.148;2022-08-19T13:21:01;8.25;;;3.40;;
66264;SDS011;53055;44.648;21.148;2022-08-19T13:23:28;10.18;;;3.55;;
66264;SDS011;53055;44.648;21.148;2022-08-19T13:25:56;9.60;;;3.55;;
66264;SDS011;53055;44.648;21.148;2022-08-19T13:28:22;8.38;;;3.58;;
66264;SDS011;53055;44.648;21.148;2022-08-19T13:30:48;9.82;;;3.50;;
66264;SDS011;53055;44.648;21.148;2022-08-19T13:33:33;9.85;;;3.42;;
66264;SDS011;53055;44.648;21.148;2022-08-19T13:36:00;9.73;;;3.35;;
66264;SDS011;53055;44.648;21.148;2022-08-19T13:38:26;8.40;;;3.08;;
66264;SDS011;53055;44.648;21.148;2022-08-19T13:40:53;7.95;;;2.97;;
66264;SDS011;53055;44.648;21.148;2022-08-19T13:43:21;9.00;;;3.78;;
66264;SDS011;53055;44.648;21.148;2022-08-19T13:45:47;9.82;;;3.20;;
66264;SDS011;53055;44.648;21.148;2022-08-19T13:48:13;11.00;;;3.55;;
66264;SDS011;53055;44.648;21.148;2022-08-19T13:50:41;11.18;;;3.72;;
66264;SDS011;53055;44.648;21.148;2022-08-19T13:53:07;8.27;;;3.60;;
66264;SDS011;53055;44.648;21.148;2022-08-19T13:55:34;9.00;;;3.28;;
66264;SDS011;53055;44.648;21.148;2022-08-19T13:58:01;8.75;;;3.60;;
66264;SDS011;53055;44.648;21.148;2022-08-19T14:00:28;8.50;;;3.53;;
66264;SDS011;53055;44.648;21.148;2022-08-19T14:02:55;10.75;;;3.83;;
66264;SDS011;53055;44.648;21.148;2022-08-19T14:05:21;11.50;;;4.07;;
66264;SDS011;53055;44.648;21.148;2022-08-19T14:07:48;9.07;;;3.60;;
66264;SDS011;53055;44.648;21.148;2022-08-19T14:10:14;9.60;;;3.58;;
66264;SDS011;53055;44.648;21.148;2022-08-19T14:12:41;9.48;;;3.35;;
66264;SDS011;53055;44.648;21.148;2022-08-19T14:15:07;9.27;;;3.55;;
66264;SDS011;53055;44.648;21.148;2022-08-19T14:17:34;7.82;;;3.10;;
66264;SDS011;53055;44.648;21.148;2022-08-19T14:20:03;9.55;;;4.20;;
66264;SDS011;53055;44.648;21.148;2022-08-19T14:22:33;9.00;;;3.35;;
66264;SDS011;53055;44.648;21.148;2022-08-19T14:24:59;8.23;;;3.17;;
66264;SDS011;53055;44.648;21.148;2022-08-19T14:27:25;10.25;;;3.78;;
66264;SDS011;53055;44.648;21.148;2022-08-19T14:29:52;7.38;;;3.40;;
66264;SDS011;53055;44.648;21.148;2022-08-19T14:32:18;9.93;;;3.92;;
66264;SDS011;53055;44.648;21.148;2022-08-19T14:34:44;11.07;;;3.88;;
66264;SDS011;53055;44.648;21.148;2022-08-19T14:37:11;8.38;;;3.72;;
66264;SDS011;53055;44.648;21.148;2022-08-19T14:39:39;8.82;;;3.65;;
66264;SDS011;53055;44.648;21.148;2022-08-19T14:42:09;6.82;;;3.00;;
66264;SDS011;53055;44.648;21.148;2022-08-19T14:44:38;9.00;;;3.58;;
66264;SDS011;53055;44.648;21.148;2022-08-19T14:47:04;9.50;;;4.15;;
66264;SDS011;53055;44.648;21.148;2022-08-19T14:49:32;8.43;;;3.78;;
66264;SDS011;53055;44.648;21.148;2022-08-19T14:51:58;10.32;;;4.35;;